createdAt,value
2022-08-25T00:00:14.718Z,101156.53
2022-08-25T00:01:01.594Z,101154.13
2022-08-25T00:02:09.942Z,101149.81
2022-08-25T00:02:57.834Z,101154.72
2022-08-25T00:03:45.531Z,101160.38
2022-08-25T00:04:33.788Z,101152.28
2022-08-25T00:05:21.971Z,101157.19
2022-08-25T00:06:09.815Z,101146.94
2022-08-25T00:07:02.233Z,101153.97
2022-08-25T00:07:49.546Z,101149.94
2022-08-25T00:08:38.107Z,101149.41
2022-08-25T00:09:27.512Z,101153.50
2022-08-25T00:10:14.034Z,101154.31
2022-08-25T00:11:03.685Z,101154.63
2022-08-25T00:11:50.813Z,101147.38
2022-08-25T00:12:37.369Z,101150.88
2022-08-25T00:13:24.169Z,101150.06
2022-08-25T00:14:16.739Z,101153.06
2022-08-25T00:15:04.107Z,101144.16
2022-08-25T00:15:50.882Z,101151.44
2022-08-25T00:16:37.959Z,101146.34
2022-08-25T00:17:24.554Z,101151.75
2022-08-25T00:18:11.522Z,101145.81
2022-08-25T00:19:12.073Z,101149.06
2022-08-25T00:19:58.602Z,101144.56
2022-08-25T00:20:49.096Z,101149.38
2022-08-25T00:21:36.151Z,101148.06
2022-08-25T00:22:22.646Z,101147.25
2022-08-25T00:23:09.137Z,101151.84
2022-08-25T00:23:56.577Z,101147.03
2022-08-25T00:24:44.337Z,101149.19
2022-08-25T00:25:30.801Z,101147.59
2022-08-25T00:26:17.656Z,101147.09
2022-08-25T00:27:05.696Z,101154.34
2022-08-25T00:27:52.483Z,101141.47
2022-08-25T00:28:39.665Z,101145.25
2022-08-25T00:29:26.518Z,101139.91
2022-08-25T00:30:15.839Z,101143.91
2022-08-25T00:31:04.096Z,101145.00
2022-08-25T00:31:52.337Z,101140.69
2022-08-25T00:32:38.862Z,101142.91
2022-08-25T00:33:26.229Z,101143.97
2022-08-25T00:34:19.113Z,101149.13
2022-08-25T00:35:06.999Z,101149.91
2022-08-25T00:35:54.597Z,101150.75
2022-08-25T00:36:41.449Z,101152.13
2022-08-25T00:37:28.203Z,101145.41
2022-08-25T00:38:16.561Z,101154.28
2022-08-25T00:39:04.815Z,101146.50
2022-08-25T00:39:51.422Z,101151.09
2022-08-25T00:40:42.104Z,101148.66
2022-08-25T00:41:28.909Z,101153.25
2022-08-25T00:42:16.444Z,101149.22
2022-08-25T00:43:03.464Z,101149.22
2022-08-25T00:44:08.264Z,101145.72
2022-08-25T00:44:54.874Z,101148.75
2022-08-25T00:45:41.397Z,101152.78
2022-08-25T00:46:37.222Z,101153.34
2022-08-25T00:47:25.109Z,101143.94
2022-08-25T00:48:11.743Z,101143.94
2022-08-25T00:49:27.518Z,101153.09
2022-08-25T00:50:14.208Z,101160.66
2022-08-25T00:51:03.000Z,101150.97
2022-08-25T00:52:00.169Z,101157.69
2022-08-25T00:52:52.303Z,101155.28
2022-08-25T00:53:39.823Z,101146.97
2022-08-25T00:54:30.778Z,101151.28
2022-08-25T00:55:25.147Z,101151.56
2022-08-25T00:56:14.153Z,101149.13
2022-08-25T00:57:04.114Z,101152.09
2022-08-25T00:58:02.883Z,101155.88
2022-08-25T00:58:50.915Z,101154.00
2022-08-25T00:59:37.519Z,101150.78
2022-08-25T01:00:30.980Z,101149.47
2022-08-25T01:01:19.630Z,101150.03
2022-08-25T01:02:10.255Z,101158.13
2022-08-25T01:03:00.417Z,101152.97
2022-08-25T01:03:47.050Z,101153.81
2022-08-25T01:04:33.861Z,101154.88
2022-08-25T01:05:21.324Z,101154.09
2022-08-25T01:06:10.078Z,101151.66
2022-08-25T01:07:00.458Z,101150.34
2022-08-25T01:07:47.378Z,101152.19
2022-08-25T01:08:34.103Z,101161.94
2022-08-25T01:09:21.305Z,101147.94
2022-08-25T01:10:09.907Z,101145.53
2022-08-25T01:11:00.651Z,101149.00
2022-08-25T01:11:48.009Z,101149.31
2022-08-25T01:12:37.292Z,101145.28
2022-08-25T01:13:35.284Z,101144.50
2022-08-25T01:14:25.237Z,101145.31
2022-08-25T01:15:13.977Z,101143.41
2022-08-25T01:16:01.561Z,101141.31
2022-08-25T01:16:53.610Z,101145.38
2022-08-25T01:17:49.073Z,101139.97
2022-08-25T01:18:46.667Z,101137.84
2022-08-25T01:19:36.059Z,101141.88
2022-08-25T01:20:27.906Z,101133.81
2022-08-25T01:21:18.977Z,101136.50
2022-08-25T01:22:05.760Z,101147.84
2022-08-25T01:22:55.234Z,101143.53
2022-08-25T01:23:42.089Z,101142.22
2022-08-25T01:24:44.673Z,101139.81
2022-08-25T01:25:45.772Z,101137.16
2022-08-25T01:26:35.010Z,101140.06
2022-08-25T01:27:21.787Z,101145.72
2022-08-25T01:28:09.069Z,101151.41
2022-08-25T01:29:14.838Z,101143.91
2022-08-25T01:30:01.366Z,101142.28
2022-08-25T01:30:49.253Z,101144.16
2022-08-25T01:31:38.097Z,101146.59
2022-08-25T01:32:24.869Z,101143.41
2022-08-25T01:33:12.479Z,101151.19
2022-08-25T01:33:59.175Z,101147.94
2022-08-25T01:34:46.029Z,101146.38
2022-08-25T01:35:33.162Z,101149.84
2022-08-25T01:36:21.540Z,101150.13
2022-08-25T01:37:12.063Z,101153.91
2022-08-25T01:38:01.652Z,101144.78
2022-08-25T01:38:50.196Z,101156.34
2022-08-25T01:39:37.223Z,101151.25
2022-08-25T01:40:23.981Z,101158.25
2022-08-25T01:41:10.553Z,101155.00
2022-08-25T01:42:09.577Z,101150.16
2022-08-25T01:43:07.708Z,101153.97
2022-08-25T01:43:54.156Z,101150.44
2022-08-25T01:44:44.987Z,101152.34
2022-08-25T01:45:32.288Z,101152.09
2022-08-25T01:46:19.175Z,101153.16
2022-08-25T01:47:08.040Z,101150.19
2022-08-25T01:47:54.804Z,101147.00
2022-08-25T01:48:41.636Z,101148.06
2022-08-25T01:49:28.352Z,101153.44
2022-08-25T01:50:14.848Z,101151.28
2022-08-25T01:51:01.327Z,101151.28
2022-08-25T01:52:02.183Z,101144.56
2022-08-25T01:52:58.713Z,101142.44
2022-08-25T01:53:45.284Z,101156.16
2022-08-25T01:54:31.762Z,101148.34
2022-08-25T01:55:18.570Z,101147.56
2022-08-25T01:56:15.276Z,101145.94
2022-08-25T01:57:03.193Z,101152.94
2022-08-25T01:57:49.824Z,101145.44
2022-08-25T01:58:39.738Z,101149.19
2022-08-25T01:59:27.132Z,101147.88
2022-08-25T02:00:16.170Z,101145.44
2022-08-25T02:01:11.227Z,101142.75
2022-08-25T02:02:00.122Z,101150.03
2022-08-25T02:02:47.082Z,101142.25
2022-08-25T02:03:42.052Z,101144.38
2022-08-25T02:04:32.178Z,101146.56
2022-08-25T02:05:23.363Z,101151.13
2022-08-25T02:06:15.677Z,101145.47
2022-08-25T02:07:04.796Z,101145.75
2022-08-25T02:07:51.204Z,101150.34
2022-08-25T02:08:38.239Z,101150.34
2022-08-25T02:09:24.897Z,101151.41
2022-08-25T02:10:13.665Z,101152.78
2022-08-25T02:11:00.235Z,101148.47
2022-08-25T02:11:47.854Z,101150.34
2022-08-25T02:12:36.336Z,101156.53
2022-08-25T02:13:26.658Z,101156.81
2022-08-25T02:14:19.787Z,101150.09
2022-08-25T02:15:08.196Z,101156.00
2022-08-25T02:15:58.142Z,101156.28
2022-08-25T02:16:48.564Z,101159.25
2022-08-25T02:17:36.884Z,101156.81
2022-08-25T02:18:24.066Z,101154.94
2022-08-25T02:19:12.048Z,101151.97
2022-08-25T02:19:58.734Z,101160.31
2022-08-25T02:20:45.971Z,101151.44
2022-08-25T02:21:33.300Z,101160.84
2022-08-25T02:22:19.851Z,101161.13
2022-08-25T02:23:06.303Z,101159.50
2022-08-25T02:23:53.508Z,101165.97
2022-08-25T02:24:40.099Z,101162.75
2022-08-25T02:25:26.654Z,101167.59
2022-08-25T02:26:18.957Z,101158.44
2022-08-25T02:27:05.565Z,101165.97
2022-08-25T02:27:52.087Z,101167.06
2022-08-25T02:28:38.517Z,101161.16
2022-08-25T02:29:25.264Z,101162.22
2022-08-25T02:30:14.717Z,101173.78
2022-08-25T02:31:01.837Z,101165.97
2022-08-25T02:31:48.603Z,101172.69
2022-08-25T02:32:35.154Z,101168.69
2022-08-25T02:33:22.295Z,101170.28
2022-08-25T02:34:10.768Z,101170.56
2022-08-25T02:34:57.244Z,101161.97
2022-08-25T02:35:44.752Z,101164.13
2022-08-25T02:36:32.269Z,101159.28
2022-08-25T02:37:18.819Z,101165.22
2022-08-25T02:38:06.507Z,101159.84
2022-08-25T02:38:53.232Z,101161.19
2022-08-25T02:39:40.347Z,101165.50
2022-08-25T02:40:27.538Z,101165.22
2022-08-25T02:41:20.072Z,101164.38
2022-08-25T02:42:06.644Z,101160.13
2022-08-25T02:42:55.407Z,101160.38
2022-08-25T02:43:44.363Z,101156.88
2022-08-25T02:44:31.704Z,101164.69
2022-08-25T02:45:19.143Z,101158.50
2022-08-25T02:46:06.257Z,101156.91
2022-08-25T02:46:53.803Z,101154.22
2022-08-25T02:47:41.029Z,101157.97
2022-08-25T02:48:28.444Z,101155.28
2022-08-25T02:49:14.932Z,101146.97
2022-08-25T02:50:01.442Z,101156.63
2022-08-25T02:50:51.616Z,101156.63
2022-08-25T02:51:38.837Z,101154.22
2022-08-25T02:52:25.393Z,101160.38
2022-08-25T02:53:13.101Z,101153.41
2022-08-25T02:54:02.240Z,101156.34
2022-08-25T02:54:48.867Z,101138.63
2022-08-25T02:55:35.946Z,101150.44
2022-08-25T02:56:22.403Z,101145.34
2022-08-25T02:57:11.674Z,101146.41
2022-08-25T02:57:58.147Z,101145.63
2022-08-25T02:58:46.067Z,101149.38
2022-08-25T02:59:32.927Z,101142.13
2022-08-25T03:00:20.962Z,101143.47
2022-08-25T03:01:12.889Z,101135.94
2022-08-25T03:01:59.581Z,101139.97
2022-08-25T03:02:47.408Z,101132.72
2022-08-25T03:03:38.766Z,101144.53
2022-08-25T03:04:26.041Z,101131.38
2022-08-25T03:05:15.027Z,101141.31
2022-08-25T03:06:01.611Z,101135.94
2022-08-25T03:06:48.427Z,101137.56
2022-08-25T03:07:36.463Z,101132.44
2022-08-25T03:08:24.311Z,101131.63
2022-08-25T03:09:11.326Z,101134.88
2022-08-25T03:09:57.772Z,101127.59
2022-08-25T03:10:44.742Z,101124.66
2022-08-25T03:11:31.686Z,101132.19
2022-08-25T03:12:18.200Z,101134.59
2022-08-25T03:13:05.480Z,101129.22
2022-08-25T03:13:52.166Z,101129.22
2022-08-25T03:14:39.615Z,101133.53
2022-08-25T03:15:28.832Z,101128.16
2022-08-25T03:16:18.207Z,101129.22
2022-08-25T03:17:08.732Z,101129.22
2022-08-25T03:17:56.027Z,101129.22
2022-08-25T03:18:46.582Z,101123.31
2022-08-25T03:19:33.737Z,101124.66
2022-08-25T03:20:22.462Z,101125.72
2022-08-25T03:21:11.389Z,101117.69
2022-08-25T03:21:59.393Z,101126.00
2022-08-25T03:22:45.992Z,101121.44
2022-08-25T03:23:32.502Z,101125.47
2022-08-25T03:24:19.208Z,101124.13
2022-08-25T03:25:25.125Z,101121.44
2022-08-25T03:26:30.266Z,101126.28
2022-08-25T03:27:16.846Z,101121.16
2022-08-25T03:28:04.104Z,101121.44
2022-08-25T03:28:50.754Z,101125.47
2022-08-25T03:29:37.243Z,101124.13
2022-08-25T03:30:27.171Z,101117.41
2022-08-25T03:31:14.274Z,101118.50
2022-08-25T03:32:01.363Z,101119.84
2022-08-25T03:32:48.076Z,101119.56
2022-08-25T03:33:36.399Z,101121.72
2022-08-25T03:34:25.494Z,101120.09
2022-08-25T03:35:12.770Z,101126.00
2022-08-25T03:35:59.528Z,101116.06
2022-08-25T03:36:51.290Z,101121.44
2022-08-25T03:37:38.393Z,101117.41
2022-08-25T03:38:26.587Z,101111.78
2022-08-25T03:39:15.369Z,101117.13
2022-08-25T03:40:09.112Z,101114.97
2022-08-25T03:41:02.066Z,101116.31
2022-08-25T03:41:50.058Z,101110.72
2022-08-25T03:42:44.776Z,101109.88
2022-08-25T03:43:31.662Z,101112.28
2022-08-25T03:44:19.861Z,101115.53
2022-08-25T03:45:08.019Z,101108.81
2022-08-25T03:45:54.838Z,101116.06
2022-08-25T03:46:44.870Z,101104.53
2022-08-25T03:47:31.442Z,101107.47
2022-08-25T03:48:18.054Z,101115.25
2022-08-25T03:49:06.778Z,101108.53
2022-08-25T03:49:53.240Z,101106.41
2022-08-25T03:50:52.084Z,101109.09
2022-08-25T03:51:46.861Z,101116.59
2022-08-25T03:52:33.473Z,101111.50
2022-08-25T03:53:20.566Z,101114.47
2022-08-25T03:54:09.234Z,101103.19
2022-08-25T03:54:55.729Z,101113.34
2022-08-25T03:55:42.289Z,101109.09
2022-08-25T03:56:29.393Z,101119.25
2022-08-25T03:57:15.886Z,101111.22
2022-08-25T03:58:02.440Z,101106.13
2022-08-25T03:58:49.423Z,101118.72
2022-08-25T03:59:38.469Z,101108.00
2022-08-25T04:00:25.026Z,101104.50
2022-08-25T04:01:12.331Z,101103.69
2022-08-25T04:01:59.119Z,101104.78
2022-08-25T04:02:46.347Z,101106.13
2022-08-25T04:03:32.901Z,101101.84
2022-08-25T04:04:20.332Z,101093.78
2022-08-25T04:05:07.933Z,101099.94
2022-08-25T04:05:55.368Z,101100.75
2022-08-25T04:06:44.115Z,101091.38
2022-08-25T04:07:30.756Z,101091.38
2022-08-25T04:08:18.986Z,101088.16
2022-08-25T04:09:06.454Z,101084.94
2022-08-25T04:09:56.189Z,101080.09
2022-08-25T04:10:42.699Z,101081.16
2022-08-25T04:11:29.397Z,101077.97
2022-08-25T04:12:15.875Z,101080.09
2022-08-25T04:13:05.554Z,101073.13
2022-08-25T04:13:56.275Z,101076.88
2022-08-25T04:14:42.798Z,101077.69
2022-08-25T04:15:30.092Z,101082.50
2022-08-25T04:16:21.838Z,101080.09
2022-08-25T04:17:08.776Z,101076.59
2022-08-25T04:17:55.668Z,101083.00
2022-08-25T04:18:43.264Z,101082.22
2022-08-25T04:19:29.834Z,101086.25
2022-08-25T04:20:16.437Z,101080.88
2022-08-25T04:21:05.893Z,101090.25
2022-08-25T04:21:56.745Z,101082.75
2022-08-25T04:22:45.022Z,101085.16
2022-08-25T04:23:32.547Z,101085.97
2022-08-25T04:24:20.500Z,101083.56
2022-08-25T04:25:07.571Z,101082.22
2022-08-25T04:25:54.125Z,101083.00
2022-08-25T04:26:47.401Z,101079.53
2022-08-25T04:27:35.704Z,101084.34
2022-08-25T04:28:22.231Z,101081.13
2022-08-25T04:29:11.879Z,101077.63
2022-08-25T04:29:58.552Z,101080.31
2022-08-25T04:30:47.182Z,101077.91
2022-08-25T04:31:40.850Z,101083.25
2022-08-25T04:32:28.300Z,101078.16
2022-08-25T04:33:14.882Z,101090.50
2022-08-25T04:34:03.312Z,101082.69
2022-08-25T04:34:50.260Z,101080.00
2022-08-25T04:35:36.867Z,101086.47
2022-08-25T04:36:25.074Z,101080.81
2022-08-25T04:37:11.833Z,101084.63
2022-08-25T04:37:58.384Z,101083.00
2022-08-25T04:38:47.434Z,101089.19
2022-08-25T04:39:35.460Z,101085.41
2022-08-25T04:40:28.741Z,101080.88
2022-08-25T04:41:21.152Z,101089.69
2022-08-25T04:42:07.690Z,101085.41
2022-08-25T04:42:54.205Z,101086.50
2022-08-25T04:43:43.948Z,101088.09
2022-08-25T04:44:31.767Z,101085.69
2022-08-25T04:45:18.488Z,101078.97
2022-08-25T04:46:07.812Z,101082.72
2022-08-25T04:46:55.689Z,101088.91
2022-08-25T04:47:42.361Z,101073.06
2022-08-25T04:48:28.806Z,101084.34
2022-08-25T04:49:15.290Z,101090.25
2022-08-25T04:50:01.790Z,101084.34
2022-08-25T04:50:48.530Z,101094.81
2022-08-25T04:51:39.584Z,101091.03
2022-08-25T04:52:26.146Z,101094.00
2022-08-25T04:53:12.694Z,101084.09
2022-08-25T04:54:01.268Z,101081.66
2022-08-25T04:54:47.769Z,101089.97
2022-08-25T04:55:43.596Z,101092.66
2022-08-25T04:56:30.249Z,101089.19
2022-08-25T04:57:16.838Z,101093.47
2022-08-25T04:58:03.462Z,101089.72
2022-08-25T04:58:50.066Z,101098.31
2022-08-25T04:59:36.572Z,101090.00
2022-08-25T05:00:23.163Z,101087.56
2022-08-25T05:01:15.531Z,101087.06
2022-08-25T05:02:03.109Z,101086.78
2022-08-25T05:02:50.161Z,101084.63
2022-08-25T05:03:37.232Z,101088.13
2022-08-25T05:04:28.442Z,101084.38
2022-08-25T05:05:16.169Z,101087.59
2022-08-25T05:06:04.483Z,101078.19
2022-08-25T05:06:51.197Z,101084.41
2022-08-25T05:07:37.803Z,101076.34
2022-08-25T05:08:24.431Z,101077.41
2022-08-25T05:09:11.173Z,101076.91
2022-08-25T05:09:58.830Z,101083.84
2022-08-25T05:10:45.305Z,101075.56
2022-08-25T05:11:32.180Z,101073.94
2022-08-25T05:12:21.615Z,101077.41
2022-08-25T05:13:08.051Z,101078.75
2022-08-25T05:13:56.865Z,101077.13
2022-08-25T05:14:44.284Z,101082.25
2022-08-25T05:15:49.171Z,101075.00
2022-08-25T05:16:39.042Z,101077.97
2022-08-25T05:17:25.550Z,101085.75
2022-08-25T05:18:12.198Z,101083.34
2022-08-25T05:18:58.973Z,101088.44
2022-08-25T05:19:45.512Z,101087.63
2022-08-25T05:20:32.126Z,101088.69
2022-08-25T05:21:22.775Z,101093.00
2022-08-25T05:22:09.579Z,101081.44
2022-08-25T05:22:56.080Z,101084.94
2022-08-25T05:23:46.831Z,101086.56
2022-08-25T05:24:33.340Z,101082.00
2022-08-25T05:25:20.071Z,101082.78
2022-08-25T05:26:19.713Z,101070.47
2022-08-25T05:27:07.038Z,101071.53
2022-08-25T05:27:53.691Z,101071.81
2022-08-25T05:28:42.074Z,101078.50
2022-08-25T05:29:28.600Z,101077.72
2022-08-25T05:30:15.075Z,101078.22
2022-08-25T05:31:04.642Z,101072.06
2022-08-25T05:31:53.977Z,101073.13
2022-08-25T05:32:40.677Z,101080.13
2022-08-25T05:33:31.395Z,101076.63
2022-08-25T05:34:20.343Z,101068.59
2022-08-25T05:35:08.131Z,101077.97
2022-08-25T05:35:55.400Z,101071.78
2022-08-25T05:36:43.652Z,101073.41
2022-08-25T05:37:30.274Z,101071.25
2022-08-25T05:38:16.844Z,101071.50
2022-08-25T05:39:04.636Z,101064.78
2022-08-25T05:39:51.309Z,101068.84
2022-08-25T05:40:38.110Z,101064.25
2022-08-25T05:41:30.682Z,101069.63
2022-08-25T05:42:17.370Z,101074.22
2022-08-25T05:43:03.855Z,101069.09
2022-08-25T05:43:50.687Z,101069.63
2022-08-25T05:44:37.378Z,101068.00
2022-08-25T05:45:24.632Z,101067.22
2022-08-25T05:46:12.491Z,101062.38
2022-08-25T05:46:59.399Z,101062.91
2022-08-25T05:47:45.935Z,101058.34
2022-08-25T05:48:32.543Z,101056.19
2022-08-25T05:49:19.212Z,101059.13
2022-08-25T05:50:06.637Z,101061.53
2022-08-25T05:50:56.649Z,101064.50
2022-08-25T05:51:43.158Z,101052.16
2022-08-25T05:52:29.752Z,101064.50
2022-08-25T05:53:16.224Z,101059.97
2022-08-25T05:54:03.792Z,101059.41
2022-08-25T05:54:50.246Z,101061.81
2022-08-25T05:55:36.783Z,101071.50
2022-08-25T05:56:23.292Z,101057.53
2022-08-25T05:57:09.780Z,101067.44
2022-08-25T05:57:56.355Z,101062.06
2022-08-25T05:58:44.367Z,101070.97
2022-08-25T05:59:30.970Z,101066.66
2022-08-25T06:00:17.906Z,101072.56
2022-08-25T06:01:23.679Z,101066.91
2022-08-25T06:02:30.468Z,101074.41
2022-08-25T06:03:18.306Z,101066.34
2022-08-25T06:04:06.488Z,101066.06
2022-08-25T06:04:54.383Z,101069.56
2022-08-25T06:05:41.299Z,101059.84
2022-08-25T06:06:27.836Z,101059.84
2022-08-25T06:07:14.414Z,101057.44
2022-08-25T06:08:00.984Z,101052.59
2022-08-25T06:08:47.467Z,101061.16
2022-08-25T06:09:34.128Z,101056.88
2022-08-25T06:10:20.910Z,101061.41
2022-08-25T06:11:07.549Z,101061.66
2022-08-25T06:11:55.255Z,101060.59
2022-08-25T06:12:44.747Z,101059.50
2022-08-25T06:13:31.216Z,101061.13
2022-08-25T06:14:17.698Z,101064.31
2022-08-25T06:15:05.572Z,101054.94
2022-08-25T06:15:58.063Z,101062.44
2022-08-25T06:16:44.624Z,101057.34
2022-08-25T06:17:32.024Z,101060.81
2022-08-25T06:18:18.469Z,101057.84
2022-08-25T06:19:06.244Z,101064.28
2022-08-25T06:19:53.777Z,101064.81
2022-08-25T06:20:40.239Z,101064.25
2022-08-25T06:21:26.734Z,101058.59
2022-08-25T06:22:13.183Z,101063.16
2022-08-25T06:23:02.642Z,101064.47
2022-08-25T06:23:49.341Z,101065.53
2022-08-25T06:24:35.937Z,101063.63
2022-08-25T06:25:26.288Z,101059.31
2022-08-25T06:26:21.049Z,101062.81
2022-08-25T06:27:08.244Z,101068.97
2022-08-25T06:27:55.179Z,101058.72
2022-08-25T06:28:42.845Z,101063.56
2022-08-25T06:29:29.379Z,101064.09
2022-08-25T06:30:23.732Z,101066.50
2022-08-25T06:31:11.205Z,101065.91
2022-08-25T06:31:57.840Z,101069.69
2022-08-25T06:32:45.664Z,101061.31
2022-08-25T06:33:32.718Z,101061.03
2022-08-25T06:34:19.633Z,101069.06
2022-08-25T06:35:14.396Z,101068.97
2022-08-25T06:36:01.199Z,101075.13
2022-08-25T06:36:49.426Z,101074.16
2022-08-25T06:37:36.319Z,101076.25
2022-08-25T06:38:24.392Z,101074.13
2022-08-25T06:39:11.144Z,101068.69
2022-08-25T06:39:57.789Z,101073.69
2022-08-25T06:40:47.885Z,101075.28
2022-08-25T06:41:36.803Z,101072.84
2022-08-25T06:42:23.753Z,101069.31
2022-08-25T06:43:10.477Z,101075.97
2022-08-25T06:44:04.865Z,101067.03
2022-08-25T06:44:52.189Z,101074.47
2022-08-25T06:45:39.886Z,101081.47
2022-08-25T06:46:31.727Z,101080.69
2022-08-25T06:47:23.252Z,101078.72
2022-08-25T06:48:10.665Z,101085.16
2022-08-25T06:48:57.835Z,101085.16
2022-08-25T06:49:45.565Z,101084.81
2022-08-25T06:50:32.107Z,101089.59
2022-08-25T06:51:20.478Z,101092.44
2022-08-25T06:52:07.136Z,101086.53
2022-08-25T06:52:53.653Z,101099.41
2022-08-25T06:53:40.192Z,101088.78
2022-08-25T06:54:26.681Z,101091.28
2022-08-25T06:55:13.174Z,101094.84
2022-08-25T06:56:03.329Z,101097.03
2022-08-25T06:56:52.461Z,101098.88
2022-08-25T06:57:39.039Z,101092.94
2022-08-25T06:58:25.805Z,101097.38
2022-08-25T06:59:12.759Z,101090.09
2022-08-25T06:59:59.226Z,101090.31
2022-08-25T07:00:45.745Z,101094.63
2022-08-25T07:01:34.559Z,101094.09
2022-08-25T07:02:21.905Z,101096.00
2022-08-25T07:03:09.144Z,101091.09
2022-08-25T07:04:00.009Z,101099.22
2022-08-25T07:04:46.559Z,101100.66
2022-08-25T07:05:43.623Z,101089.78
2022-08-25T07:06:35.253Z,101091.78
2022-08-25T07:07:22.474Z,101098.31
2022-08-25T07:08:08.887Z,101087.50
2022-08-25T07:08:55.457Z,101085.56
2022-08-25T07:09:41.895Z,101092.81
2022-08-25T07:10:28.329Z,101077.84
2022-08-25T07:11:20.849Z,101083.91
2022-08-25T07:12:08.198Z,101081.72
2022-08-25T07:12:54.600Z,101080.69
2022-08-25T07:13:41.962Z,101075.78
2022-08-25T07:14:28.504Z,101076.00
2022-08-25T07:15:20.402Z,101071.16
2022-08-25T07:16:08.625Z,101074.84
2022-08-25T07:16:55.159Z,101071.28
2022-08-25T07:17:41.644Z,101073.56
2022-08-25T07:18:30.328Z,101076.19
2022-08-25T07:19:20.540Z,101073.59
2022-08-25T07:20:08.794Z,101082.69
2022-08-25T07:21:00.487Z,101076.28
2022-08-25T07:21:51.908Z,101077.50
2022-08-25T07:22:38.338Z,101073.22
2022-08-25T07:23:26.252Z,101074.91
2022-08-25T07:24:14.876Z,101072.19
2022-08-25T07:25:01.398Z,101077.22
2022-08-25T07:25:48.889Z,101076.38
2022-08-25T07:26:38.254Z,101078.59
2022-08-25T07:27:26.223Z,101075.53
2022-08-25T07:28:13.284Z,101076.38
2022-08-25T07:28:59.939Z,101072.69
2022-08-25T07:29:49.967Z,101073.09
2022-08-25T07:30:36.466Z,101070.72
2022-08-25T07:31:29.456Z,101066.91
2022-08-25T07:32:16.524Z,101073.38
2022-08-25T07:33:06.769Z,101072.75
2022-08-25T07:34:12.612Z,101065.81
2022-08-25T07:35:19.227Z,101072.53
2022-08-25T07:36:06.307Z,101073.91
2022-08-25T07:36:54.439Z,101075.31
2022-08-25T07:37:50.042Z,101080.19
2022-08-25T07:38:37.521Z,101079.88
2022-08-25T07:39:25.990Z,101075.28
2022-08-25T07:40:21.487Z,101079.03
2022-08-25T07:41:07.999Z,101076.13
2022-08-25T07:41:54.467Z,101077.72
2022-08-25T07:42:42.494Z,101083.19
2022-08-25T07:43:29.373Z,101082.56
2022-08-25T07:44:16.197Z,101078.47
2022-08-25T07:45:05.224Z,101076.78
2022-08-25T07:45:53.820Z,101083.47
2022-08-25T07:46:40.945Z,101076.00
2022-08-25T07:47:29.134Z,101082.56
2022-08-25T07:48:19.704Z,101084.50
2022-08-25T07:49:16.405Z,101082.09
2022-08-25T07:50:05.668Z,101085.47
2022-08-25T07:50:52.274Z,101085.16
2022-08-25T07:51:38.896Z,101080.34
2022-08-25T07:52:47.812Z,101083.69
2022-08-25T07:53:39.985Z,101075.25
2022-08-25T07:54:31.302Z,101083.06
2022-08-25T07:55:21.253Z,101087.25
2022-08-25T07:56:13.757Z,101083.91
2022-08-25T07:57:00.232Z,101084.25
2022-08-25T07:57:49.858Z,101084.34
2022-08-25T07:58:43.547Z,101088.34
2022-08-25T07:59:39.452Z,101086.91
2022-08-25T08:00:29.905Z,101084.06
2022-08-25T08:01:19.452Z,101075.00
2022-08-25T08:02:17.779Z,101082.13
2022-08-25T08:03:15.978Z,101085.66
2022-08-25T08:04:10.541Z,101078.84
2022-08-25T08:04:57.664Z,101082.06
2022-08-25T08:05:44.437Z,101078.06
2022-08-25T08:06:32.366Z,101082.38
2022-08-25T08:07:22.867Z,101076.97
2022-08-25T08:08:09.618Z,101077.91
2022-08-25T08:08:57.985Z,101082.69
2022-08-25T08:09:46.468Z,101077.91
2022-08-25T08:11:03.257Z,101079.38
2022-08-25T08:11:53.828Z,101081.63
2022-08-25T08:12:42.367Z,101082.47
2022-08-25T08:13:28.849Z,101076.72
2022-08-25T08:14:16.433Z,101076.06
2022-08-25T08:15:04.707Z,101084.84
2022-08-25T08:15:57.159Z,101077.34
2022-08-25T08:16:43.752Z,101083.91
2022-08-25T08:17:31.839Z,101078.94
2022-08-25T08:18:18.396Z,101080.88
2022-08-25T08:19:06.012Z,101080.72
2022-08-25T08:19:54.082Z,101074.34
2022-08-25T08:20:44.517Z,101073.19
2022-08-25T08:21:33.672Z,101076.22
2022-08-25T08:22:20.913Z,101078.31
2022-08-25T08:23:07.733Z,101068.72
2022-08-25T08:23:58.879Z,101073.47
2022-08-25T08:24:54.943Z,101069.50
2022-08-25T08:25:42.972Z,101070.16
2022-08-25T08:26:55.182Z,101069.00
2022-08-25T08:27:37.304Z,101066.28
2022-08-25T08:28:27.902Z,101060.53
2022-08-25T08:29:15.291Z,101058.00
2022-08-25T08:30:04.272Z,101069.16
2022-08-25T08:30:53.108Z,101057.50
2022-08-25T08:31:40.605Z,101055.13
2022-08-25T08:33:05.938Z,101058.44
2022-08-25T08:33:42.057Z,101055.34
2022-08-25T08:34:30.149Z,101059.69
2022-08-25T08:35:18.871Z,101051.72
2022-08-25T08:36:09.425Z,101053.50
2022-08-25T08:36:57.321Z,101054.28
2022-08-25T08:37:43.908Z,101054.19
2022-08-25T08:38:30.865Z,101047.34
2022-08-25T08:39:17.812Z,101043.81
2022-08-25T08:40:06.244Z,101047.28
2022-08-25T08:42:09.566Z,101044.94
2022-08-25T08:43:18.933Z,101046.44
2022-08-25T08:44:26.457Z,101041.53
2022-08-25T08:45:26.600Z,101037.41
2022-08-25T08:46:14.178Z,101040.22
2022-08-25T08:47:08.951Z,101035.09
2022-08-25T08:48:33.134Z,101040.81
2022-08-25T08:49:37.908Z,101038.31
2022-08-25T08:51:09.945Z,101032.75
2022-08-25T08:52:02.868Z,101030.28
2022-08-25T08:52:53.695Z,101034.59
2022-08-25T08:54:23.047Z,101040.50
2022-08-25T08:55:24.595Z,101042.19
2022-08-25T08:56:25.802Z,101038.75
2022-08-25T08:57:28.001Z,101030.56
2022-08-25T08:58:26.130Z,101040.91
2022-08-25T08:59:30.100Z,101035.66
2022-08-25T09:00:17.998Z,101033.19
2022-08-25T09:01:05.977Z,101031.84
2022-08-25T09:01:59.304Z,101038.41
2022-08-25T09:03:11.974Z,101029.38
2022-08-25T09:04:18.273Z,101032.09
2022-08-25T09:05:19.138Z,101029.03
2022-08-25T09:06:18.153Z,101028.34
2022-08-25T09:07:12.945Z,101023.78
2022-08-25T09:08:11.366Z,101028.56
2022-08-25T09:09:02.506Z,101027.44
2022-08-25T09:09:54.707Z,101028.38
2022-08-25T09:11:03.443Z,101025.28
2022-08-25T09:12:12.178Z,101020.41
2022-08-25T09:13:15.497Z,101019.59
2022-08-25T09:14:18.344Z,101020.16
2022-08-25T09:15:58.144Z,101007.69
2022-08-25T09:16:55.008Z,101020.47
2022-08-25T09:17:54.828Z,101018.31
2022-08-25T09:18:56.475Z,101016.63
2022-08-25T09:20:20.795Z,101015.94
2022-08-25T09:21:19.789Z,101011.25
2022-08-25T09:22:36.339Z,101013.75
2022-08-25T09:23:39.878Z,101009.66
2022-08-25T09:24:32.102Z,101014.47
2022-08-25T09:25:56.833Z,101012.50
2022-08-25T09:26:43.225Z,101015.59
2022-08-25T09:28:05.153Z,101017.72
2022-08-25T09:29:10.861Z,101018.31
2022-08-25T09:30:11.600Z,101006.63